createdAt,value
2017-11-20T00:00:29.693Z,1012.23
2017-11-20T00:01:10.399Z,1012.26
2017-11-20T00:01:51.029Z,1012.24
2017-11-20T00:02:31.344Z,1012.23
2017-11-20T00:03:12.592Z,1012.24
2017-11-20T00:06:45.465Z,1012.16
2017-11-20T00:07:40.177Z,1012.12
2017-11-20T00:08:29.354Z,1012.14
2017-11-20T00:09:09.760Z,1012.16
2017-11-20T00:09:50.270Z,1012.15
2017-11-20T00:10:30.724Z,1012.17
2017-11-20T00:11:11.831Z,1012.1
2017-11-20T00:11:52.575Z,1012.07
2017-11-20T00:12:32.985Z,1012.09
2017-11-20T00:13:13.536Z,1012.04
2017-11-20T00:13:53.930Z,1012.06
2017-11-20T00:14:34.337Z,1012.04
2017-11-20T00:15:14.778Z,1012.01
2017-11-20T00:15:55.132Z,1011.98
2017-11-20T00:16:35.733Z,1012
2017-11-20T00:17:17.669Z,1011.99
2017-11-20T00:17:57.837Z,1011.97
2017-11-20T00:18:38.791Z,1011.92
2017-11-20T00:19:19.519Z,1011.95
2017-11-20T00:19:59.910Z,1011.94
2017-11-20T00:20:41.076Z,1011.99
2017-11-20T00:21:21.250Z,1011.94
2017-11-20T00:22:01.592Z,1011.9
2017-11-20T00:22:42.883Z,1011.91
2017-11-20T00:23:23.440Z,1011.94
2017-11-20T00:24:04.793Z,1011.89
2017-11-20T00:24:46.729Z,1011.91
2017-11-20T00:25:27.196Z,1011.86
2017-11-20T00:26:08.223Z,1011.92
2017-11-20T00:26:48.453Z,1011.88
2017-11-20T00:27:30.711Z,1011.87
2017-11-20T00:28:11.038Z,1011.88
2017-11-20T00:28:51.719Z,1011.86
2017-11-20T00:29:32.178Z,1011.84
2017-11-20T00:30:12.631Z,1011.87
2017-11-20T00:30:52.988Z,1011.84
2017-11-20T00:31:33.418Z,1011.82
2017-11-20T00:32:13.937Z,1011.8
2017-11-20T00:32:54.377Z,1011.8
2017-11-20T00:33:34.825Z,1011.79
2017-11-20T00:34:15.764Z,1011.78
2017-11-20T00:34:58.732Z,1011.75
2017-11-20T00:35:39.621Z,1011.78
2017-11-20T00:36:19.891Z,1011.73
2017-11-20T00:37:02.629Z,1011.78
2017-11-20T00:37:43.123Z,1011.75
2017-11-20T00:38:23.428Z,1011.74
2017-11-20T00:39:03.876Z,1011.76
2017-11-20T00:39:44.342Z,1011.76
2017-11-20T00:40:24.873Z,1011.75
2017-11-20T00:41:05.439Z,1011.81
2017-11-20T00:41:45.602Z,1011.78
2017-11-20T00:42:26.152Z,1011.8
2017-11-20T00:43:08.098Z,1011.79
2017-11-20T00:43:48.347Z,1011.8
2017-11-20T00:44:29.100Z,1011.74
2017-11-20T00:45:09.414Z,1011.77
2017-11-20T00:45:49.781Z,1011.8
2017-11-20T00:46:30.438Z,1011.79
2017-11-20T00:47:10.998Z,1011.75
2017-11-20T00:47:51.647Z,1011.86
2017-11-20T00:48:32.622Z,1011.79
2017-11-20T00:49:12.946Z,1011.83
2017-11-20T00:49:53.502Z,1011.87
2017-11-20T00:50:35.003Z,1011.84
2017-11-20T00:51:15.157Z,1011.8
2017-11-20T00:51:55.798Z,1011.88
2017-11-20T00:52:37.045Z,1011.88
2017-11-20T00:53:17.624Z,1011.92
2017-11-20T00:53:58.841Z,1011.91
2017-11-20T00:54:39.343Z,1011.97
2017-11-20T00:55:20.096Z,1011.97
2017-11-20T00:56:01.752Z,1011.92
2017-11-20T00:56:42.495Z,1011.97
2017-11-20T00:57:22.851Z,1011.94
2017-11-20T00:58:03.403Z,1011.93
2017-11-20T00:58:43.796Z,1011.95
2017-11-20T00:59:24.192Z,1011.95
2017-11-20T01:00:04.745Z,1011.95
2017-11-20T01:00:45.187Z,1011.91
2017-11-20T01:01:25.636Z,1011.93
2017-11-20T01:02:06.167Z,1011.9
2017-11-20T01:02:46.550Z,1011.92
2017-11-20T01:03:26.984Z,1011.92
2017-11-20T01:04:08.197Z,1011.9
2017-11-20T01:04:48.819Z,1011.9
2017-11-20T01:05:30.185Z,1011.94
2017-11-20T01:06:12.209Z,1011.97
2017-11-20T01:06:53.168Z,1011.97
2017-11-20T01:07:33.471Z,1011.97
2017-11-20T01:08:13.833Z,1011.99
2017-11-20T01:08:54.893Z,1011.99
2017-11-20T01:09:36.283Z,1011.99
2017-11-20T01:10:18.980Z,1012.03
2017-11-20T01:11:01.775Z,1011.99
2017-11-20T01:11:43.108Z,1012
2017-11-20T01:12:23.664Z,1012.02
2017-11-20T01:13:04.157Z,1012.01
2017-11-20T01:13:44.785Z,1012.04
2017-11-20T01:14:25.174Z,1012.05
2017-11-20T01:15:05.559Z,1012.02
2017-11-20T01:15:46.030Z,1012.06
2017-11-20T01:16:27.359Z,1012.06
2017-11-20T01:17:08.586Z,1012.03
2017-11-20T01:17:48.726Z,1012.07
2017-11-20T01:18:29.051Z,1012
2017-11-20T01:19:09.598Z,1012.02
2017-11-20T01:19:50.089Z,1012
2017-11-20T01:20:30.435Z,1012.01
2017-11-20T01:21:10.842Z,1012.04
2017-11-20T01:21:51.297Z,1012
2017-11-20T01:22:31.825Z,1011.98
2017-11-20T01:23:12.193Z,1011.98
2017-11-20T01:23:52.745Z,1012
2017-11-20T01:24:33.168Z,1012
2017-11-20T01:25:13.703Z,1011.97
2017-11-20T01:25:54.059Z,1011.98
2017-11-20T01:26:34.495Z,1012.01
2017-11-20T01:27:15.089Z,1012.01
2017-11-20T01:27:55.465Z,1012.03
2017-11-20T01:28:35.986Z,1012.01
2017-11-20T01:29:16.570Z,1012.04
2017-11-20T01:29:57.261Z,1012.01
2017-11-20T01:30:37.997Z,1012.04
2017-11-20T01:31:18.354Z,1012
2017-11-20T01:31:58.824Z,1012.01
2017-11-20T01:32:39.174Z,1012.06
2017-11-20T01:33:19.541Z,1012.05
2017-11-20T01:34:00.071Z,1012.05
2017-11-20T01:34:40.511Z,1012.04
2017-11-20T01:35:20.848Z,1012.09
2017-11-20T01:36:01.209Z,1012.13
2017-11-20T01:36:41.760Z,1012
2017-11-20T01:37:22.181Z,1012.08
2017-11-20T01:38:02.633Z,1012.1
2017-11-20T01:38:43.193Z,1012.12
2017-11-20T01:39:23.825Z,1012.1
2017-11-20T01:40:04.221Z,1012.11
2017-11-20T01:40:44.636Z,1012.09
2017-11-20T01:41:25.048Z,1012.07
2017-11-20T01:42:05.664Z,1012.08
2017-11-20T01:42:46.188Z,1012.04
2017-11-20T01:43:26.548Z,1012.04
2017-11-20T01:44:06.966Z,1012.01
2017-11-20T01:44:47.417Z,1011.94
2017-11-20T01:45:27.767Z,1011.94
2017-11-20T01:46:08.138Z,1011.93
2017-11-20T01:46:48.577Z,1011.97
2017-11-20T01:47:29.010Z,1011.97
2017-11-20T01:48:09.461Z,1011.9
2017-11-20T01:48:49.927Z,1011.86
2017-11-20T01:49:30.248Z,1011.91
2017-11-20T01:50:10.744Z,1011.9
2017-11-20T01:50:51.166Z,1011.81
2017-11-20T01:51:31.913Z,1011.88
2017-11-20T01:52:12.410Z,1011.86
2017-11-20T01:52:52.781Z,1011.89
2017-11-20T01:53:33.253Z,1011.88
2017-11-20T01:54:13.735Z,1011.84
2017-11-20T01:54:54.110Z,1011.87
2017-11-20T01:55:34.596Z,1011.84
2017-11-20T01:56:14.981Z,1011.85
2017-11-20T01:56:55.417Z,1011.86
2017-11-20T01:57:35.686Z,1011.83
2017-11-20T01:58:16.149Z,1011.72
2017-11-20T01:58:56.905Z,1011.74
2017-11-20T01:59:37.246Z,1011.72
2017-11-20T02:00:17.643Z,1011.71
2017-11-20T02:00:58.019Z,1011.75
2017-11-20T02:01:39.639Z,1011.75
2017-11-20T02:02:20.004Z,1011.75
2017-11-20T02:03:00.573Z,1011.75
2017-11-20T02:03:41.956Z,1011.71
2017-11-20T02:04:24.163Z,1011.73
2017-11-20T02:05:04.594Z,1011.7
2017-11-20T02:05:45.108Z,1011.71
2017-11-20T02:06:25.972Z,1011.65
2017-11-20T02:07:06.826Z,1011.68
2017-11-20T02:07:47.218Z,1011.68
2017-11-20T02:08:27.624Z,1011.7
2017-11-20T02:09:07.959Z,1011.69
2017-11-20T02:09:48.347Z,1011.68
2017-11-20T02:10:29.086Z,1011.62
2017-11-20T02:11:09.437Z,1011.65
2017-11-20T02:11:49.891Z,1011.62
2017-11-20T02:12:30.351Z,1011.6
2017-11-20T02:13:10.894Z,1011.6
2017-11-20T02:13:51.533Z,1011.56
2017-11-20T02:14:32.214Z,1011.55
2017-11-20T02:15:12.724Z,1011.55
2017-11-20T02:15:53.077Z,1011.57
2017-11-20T02:16:33.577Z,1011.5
2017-11-20T02:17:13.897Z,1011.51
2017-11-20T02:17:54.502Z,1011.5
2017-11-20T02:18:35.079Z,1011.49
2017-11-20T02:19:15.626Z,1011.46
2017-11-20T02:19:55.993Z,1011.48
2017-11-20T02:20:36.815Z,1011.49
2017-11-20T02:21:17.065Z,1011.47
2017-11-20T02:21:57.531Z,1011.5
2017-11-20T02:22:38.052Z,1011.48
2017-11-20T02:23:18.628Z,1011.54
2017-11-20T02:23:59.060Z,1011.5
2017-11-20T02:24:39.406Z,1011.47
2017-11-20T02:25:19.868Z,1011.48
2017-11-20T02:26:00.352Z,1011.47
2017-11-20T02:26:40.941Z,1011.45
2017-11-20T02:27:21.409Z,1011.44
2017-11-20T02:28:01.784Z,1011.45
2017-11-20T02:28:42.327Z,1011.44
2017-11-20T02:29:23.290Z,1011.45
2017-11-20T02:30:03.704Z,1011.43
2017-11-20T02:30:44.273Z,1011.43
2017-11-20T02:31:24.817Z,1011.47
2017-11-20T02:32:06.222Z,1011.42
2017-11-20T02:32:47.764Z,1011.45
2017-11-20T02:33:32.417Z,1011.43
2017-11-20T02:34:13.532Z,1011.43
2017-11-20T02:34:54.022Z,1011.43
2017-11-20T02:35:34.669Z,1011.44
2017-11-20T02:36:16.982Z,1011.42
2017-11-20T02:36:57.655Z,1011.44
2017-11-20T02:37:38.104Z,1011.44
2017-11-20T02:38:19.002Z,1011.45
2017-11-20T02:38:59.580Z,1011.4
2017-11-20T02:39:41.910Z,1011.45
2017-11-20T02:40:22.888Z,1011.48
2017-11-20T02:41:03.321Z,1011.47
2017-11-20T02:41:44.793Z,1011.42
2017-11-20T02:42:26.036Z,1011.47
2017-11-20T02:43:06.924Z,1011.51
2017-11-20T02:43:47.361Z,1011.48
2017-11-20T02:44:27.991Z,1011.48
2017-11-20T02:45:09.485Z,1011.54
2017-11-20T02:45:49.732Z,1011.54
2017-11-20T02:46:33.349Z,1011.49
2017-11-20T02:47:14.082Z,1011.5
2017-11-20T02:47:54.508Z,1011.54
2017-11-20T02:48:34.908Z,1011.51
2017-11-20T02:49:15.402Z,1011.49
2017-11-20T02:49:55.747Z,1011.51
2017-11-20T02:50:36.128Z,1011.51
2017-11-20T02:51:16.545Z,1011.48
2017-11-20T02:51:56.936Z,1011.46
2017-11-20T02:52:37.447Z,1011.47
2017-11-20T02:53:17.883Z,1011.48
2017-11-20T02:53:58.343Z,1011.46
2017-11-20T02:54:38.625Z,1011.49
2017-11-20T02:55:19.086Z,1011.46
2017-11-20T02:55:59.586Z,1011.48
2017-11-20T02:56:40.034Z,1011.48
2017-11-20T02:57:20.386Z,1011.45
2017-11-20T02:58:00.823Z,1011.5
2017-11-20T02:58:41.278Z,1011.45
2017-11-20T02:59:21.890Z,1011.43
2017-11-20T03:00:02.340Z,1011.44
2017-11-20T03:00:42.722Z,1011.47
2017-11-20T03:01:23.229Z,1011.41
2017-11-20T03:02:03.722Z,1011.42
2017-11-20T03:02:44.083Z,1011.44
2017-11-20T03:03:24.469Z,1011.44
2017-11-20T03:04:04.921Z,1011.48
2017-11-20T03:04:45.412Z,1011.43
2017-11-20T03:05:25.763Z,1011.43
2017-11-20T03:06:06.236Z,1011.42
2017-11-20T03:06:46.649Z,1011.45
2017-11-20T03:07:27.051Z,1011.41
2017-11-20T03:08:07.487Z,1011.42
2017-11-20T03:08:47.869Z,1011.44
2017-11-20T03:09:28.234Z,1011.4
2017-11-20T03:10:08.620Z,1011.38
2017-11-20T03:10:49.063Z,1011.39
2017-11-20T03:11:29.465Z,1011.41
2017-11-20T03:12:09.944Z,1011.42
2017-11-20T03:12:50.285Z,1011.44
2017-11-20T03:13:30.724Z,1011.41
2017-11-20T03:14:11.158Z,1011.43
2017-11-20T03:14:51.657Z,1011.42
2017-11-20T03:15:32.184Z,1011.41
2017-11-20T03:16:12.584Z,1011.38
2017-11-20T03:16:53.110Z,1011.33
2017-11-20T03:17:33.650Z,1011.4
2017-11-20T03:18:14.057Z,1011.36
2017-11-20T03:18:54.465Z,1011.38
2017-11-20T03:19:34.913Z,1011.39
2017-11-20T03:20:15.348Z,1011.35
2017-11-20T03:20:55.767Z,1011.39
2017-11-20T03:21:36.148Z,1011.36
2017-11-20T03:22:16.561Z,1011.34
2017-11-20T03:22:56.966Z,1011.32
2017-11-20T03:23:37.477Z,1011.33
2017-11-20T03:24:17.846Z,1011.34
2017-11-20T03:24:58.204Z,1011.36
2017-11-20T03:25:38.711Z,1011.37
2017-11-20T03:26:19.045Z,1011.35
2017-11-20T03:26:59.549Z,1011.37
2017-11-20T03:27:39.957Z,1011.34
2017-11-20T03:28:20.475Z,1011.3
2017-11-20T03:29:00.838Z,1011.38
2017-11-20T03:29:41.285Z,1011.36
2017-11-20T03:30:21.662Z,1011.37
2017-11-20T03:31:02.168Z,1011.41
2017-11-20T03:31:42.538Z,1011.36
2017-11-20T03:32:22.903Z,1011.39
2017-11-20T03:33:03.278Z,1011.41
2017-11-20T03:33:43.749Z,1011.39
2017-11-20T03:34:24.293Z,1011.39
2017-11-20T03:35:04.690Z,1011.46
2017-11-20T03:35:45.191Z,1011.42
2017-11-20T03:36:25.596Z,1011.39
2017-11-20T03:37:06.097Z,1011.38
2017-11-20T03:37:46.591Z,1011.34
2017-11-20T03:38:27.105Z,1011.4
2017-11-20T03:39:07.480Z,1011.42
2017-11-20T03:39:48.004Z,1011.39
2017-11-20T03:40:28.369Z,1011.45
2017-11-20T03:41:08.823Z,1011.42
2017-11-20T03:41:49.187Z,1011.43
2017-11-20T03:42:29.642Z,1011.41
2017-11-20T03:43:10.153Z,1011.4
2017-11-20T03:43:51.137Z,1011.36
2017-11-20T03:44:31.096Z,1011.38
2017-11-20T03:45:11.435Z,1011.38
2017-11-20T03:45:51.796Z,1011.33
2017-11-20T03:46:32.325Z,1011.31
2017-11-20T03:47:12.853Z,1011.36
2017-11-20T03:47:53.300Z,1011.32
2017-11-20T03:48:33.857Z,1011.36
2017-11-20T03:49:14.888Z,1011.32
2017-11-20T03:49:54.765Z,1011.31
2017-11-20T03:50:35.329Z,1011.32
2017-11-20T03:51:15.827Z,1011.32
2017-11-20T03:51:56.340Z,1011.32
2017-11-20T03:52:36.777Z,1011.31
2017-11-20T03:53:17.128Z,1011.29
2017-11-20T03:53:57.564Z,1011.31
2017-11-20T03:54:38.091Z,1011.35
2017-11-20T03:55:18.628Z,1011.33
2017-11-20T03:55:59.187Z,1011.32
2017-11-20T03:56:39.564Z,1011.38
2017-11-20T03:57:19.981Z,1011.34
2017-11-20T03:58:00.413Z,1011.36
2017-11-20T03:58:40.766Z,1011.3
2017-11-20T03:59:21.363Z,1011.32
2017-11-20T04:00:01.655Z,1011.35
2017-11-20T04:00:42.119Z,1011.36
2017-11-20T04:01:22.619Z,1011.32
2017-11-20T04:02:03.153Z,1011.32
2017-11-20T04:02:44.465Z,1011.31
2017-11-20T04:03:26.583Z,1011.34
2017-11-20T04:44:35.183Z,1011.1
2017-11-20T04:45:30.858Z,1011.17
2017-11-20T04:46:23.405Z,1011.1
2017-11-20T04:48:27.271Z,1011.12
2017-11-20T04:49:19.789Z,1011.19
2017-11-20T04:51:27.438Z,1011.18
2017-11-20T04:52:11.163Z,1011.16
2017-11-20T04:52:51.627Z,1011.16
2017-11-20T04:53:32.060Z,1011.16
2017-11-20T04:54:12.536Z,1011.14
2017-11-20T04:54:53.305Z,1011.14
2017-11-20T04:55:33.953Z,1011.19
2017-11-20T04:56:16.460Z,1011.15
2017-11-20T04:56:58.481Z,1011.11
2017-11-20T04:57:39.163Z,1011.18
2017-11-20T04:58:19.636Z,1011.13
2017-11-20T04:59:00.130Z,1011.14
2017-11-20T04:59:41.311Z,1011.15
2017-11-20T05:00:21.782Z,1011.12
2017-11-20T05:01:02.645Z,1011.16
2017-11-20T05:01:43.343Z,1011.17
2017-11-20T05:02:24.557Z,1011.12
2017-11-20T05:03:05.354Z,1011.1
2017-11-20T05:03:46.226Z,1011.1
2017-11-20T05:04:27.201Z,1011.1
2017-11-20T05:05:08.221Z,1011.13
2017-11-20T05:05:49.413Z,1011.13
2017-11-20T05:06:30.107Z,1011.14
2017-11-20T05:07:10.862Z,1011.08
2017-11-20T05:07:51.211Z,1011.09
2017-11-20T05:08:31.662Z,1011.09
2017-11-20T05:09:12.080Z,1011.11
2017-11-20T05:09:52.466Z,1011.09
2017-11-20T05:10:33.302Z,1011.09
2017-11-20T05:11:13.630Z,1011.08
2017-11-20T05:11:54.045Z,1011.07
2017-11-20T05:12:34.600Z,1011.05
2017-11-20T05:13:14.950Z,1011.03
2017-11-20T05:13:55.520Z,1011.03
2017-11-20T05:14:36.075Z,1011.09
2017-11-20T05:15:16.528Z,1011.06
2017-11-20T05:15:56.985Z,1011.04
2017-11-20T05:16:37.536Z,1011.05
2017-11-20T05:17:17.877Z,1011.07
2017-11-20T05:17:58.275Z,1011.04
2017-11-20T05:18:38.787Z,1011.05
2017-11-20T05:19:19.272Z,1011.05
2017-11-20T05:19:59.648Z,1011.03
2017-11-20T05:20:40.079Z,1011.04
2017-11-20T05:21:20.428Z,1011.05
2017-11-20T05:22:00.946Z,1011.04
2017-11-20T05:22:41.355Z,1011.02
2017-11-20T05:23:21.967Z,1011.04
2017-11-20T05:24:02.284Z,1011.08
2017-11-20T05:24:42.800Z,1011.04
2017-11-20T05:25:23.178Z,1011.07
2017-11-20T05:26:03.672Z,1011.03
2017-11-20T05:26:44.249Z,1011.06
2017-11-20T05:27:24.651Z,1011.03
2017-11-20T05:28:05.163Z,1011.02
2017-11-20T05:28:45.820Z,1010.99
2017-11-20T05:29:26.231Z,1010.98
2017-11-20T05:30:06.783Z,1010.97
2017-11-20T05:30:47.140Z,1010.92
2017-11-20T05:31:27.576Z,1010.92
2017-11-20T05:32:08.139Z,1010.94
2017-11-20T05:32:48.693Z,1010.94
2017-11-20T05:33:29.214Z,1010.96
2017-11-20T05:34:09.689Z,1010.97
2017-11-20T05:34:50.045Z,1010.93
2017-11-20T05:35:30.603Z,1010.93
2017-11-20T05:36:11.142Z,1010.92
2017-11-20T05:36:51.549Z,1010.94
2017-11-20T05:37:32.127Z,1010.97
2017-11-20T05:38:12.456Z,1010.96
2017-11-20T05:38:53.296Z,1010.93
2017-11-20T05:39:34.097Z,1010.94
2017-11-20T05:40:16.974Z,1010.95
2017-11-20T05:40:58.397Z,1010.95
2017-11-20T05:41:40.086Z,1010.95
2017-11-20T05:42:21.594Z,1010.96
2017-11-20T05:43:02.248Z,1010.98
2017-11-20T05:43:43.750Z,1010.94
2017-11-20T05:44:25.030Z,1010.99
2017-11-20T05:45:06.956Z,1010.98
2017-11-20T05:45:48.820Z,1010.98
2017-11-20T05:46:30.794Z,1010.96
2017-11-20T05:47:11.894Z,1011.02
2017-11-20T05:47:51.876Z,1011.02
2017-11-20T05:48:32.294Z,1010.97
2017-11-20T05:49:12.905Z,1010.98
2017-11-20T05:49:53.529Z,1011.01
2017-11-20T05:50:34.002Z,1010.96
2017-11-20T05:51:15.069Z,1010.97
2017-11-20T05:51:55.686Z,1011
2017-11-20T05:52:36.203Z,1011
2017-11-20T05:53:16.792Z,1011.02
2017-11-20T05:53:57.305Z,1010.99
2017-11-20T05:54:37.692Z,1011.02
2017-11-20T05:55:18.168Z,1011.02
2017-11-20T05:55:59.585Z,1011.02
2017-11-20T05:56:41.137Z,1011.01
2017-11-20T05:57:22.210Z,1011
2017-11-20T05:58:02.234Z,1011.01
2017-11-20T05:58:43.660Z,1011.03
2017-11-20T05:59:23.899Z,1011
2017-11-20T06:00:04.346Z,1011.03
2017-11-20T06:00:45.113Z,1011.05
2017-11-20T06:01:25.280Z,1011.05
2017-11-20T06:02:06.546Z,1011.06
2017-11-20T06:02:47.800Z,1011.07
2017-11-20T06:03:27.253Z,1011.07
2017-11-20T06:04:07.694Z,1011.09
2017-11-20T06:04:48.420Z,1011.05
2017-11-20T06:05:28.959Z,1011.07
2017-11-20T06:06:10.049Z,1011.04
2017-11-20T06:06:50.232Z,1011.05
2017-11-20T06:07:30.518Z,1011.1
2017-11-20T06:08:11.127Z,1011.05
2017-11-20T06:08:51.526Z,1011.05
2017-11-20T06:09:32.028Z,1011.03
2017-11-20T06:10:12.558Z,1011.04
2017-11-20T06:10:52.912Z,1011.01
2017-11-20T06:11:33.273Z,1011.01
2017-11-20T06:12:14.024Z,1010.99
2017-11-20T06:12:54.525Z,1010.97
2017-11-20T06:13:34.997Z,1010.95
2017-11-20T06:14:16.155Z,1010.93
2017-11-20T06:14:56.760Z,1010.93
2017-11-20T06:15:37.725Z,1010.93
2017-11-20T06:16:18.230Z,1010.89
2017-11-20T06:16:58.787Z,1010.94
2017-11-20T06:17:39.104Z,1010.87
2017-11-20T06:20:15.551Z,1010.93
2017-11-20T06:22:57.455Z,1010.92
2017-11-20T06:23:51.219Z,1010.92
2017-11-20T06:24:47.777Z,1010.91
2017-11-20T06:25:39.762Z,1010.91
2017-11-20T06:26:31.222Z,1010.91
2017-11-20T06:27:11.520Z,1010.95
2017-11-20T06:27:51.842Z,1010.97
2017-11-20T06:28:35.324Z,1010.96
2017-11-20T06:29:15.353Z,1010.95
2017-11-20T06:29:55.900Z,1010.94
2017-11-20T06:30:36.444Z,1010.96
2017-11-20T06:31:17.020Z,1010.96
2017-11-20T06:31:57.509Z,1010.96
2017-11-20T06:32:38.997Z,1010.96
2017-11-20T06:33:18.982Z,1010.96
2017-11-20T06:33:59.421Z,1010.96
2017-11-20T06:34:49.194Z,1010.94
2017-11-20T06:35:31.787Z,1010.96
2017-11-20T06:36:13.071Z,1010.97
2017-11-20T06:36:53.548Z,1010.94
2017-11-20T06:37:38.642Z,1010.97
2017-11-20T06:38:19.042Z,1010.99
2017-11-20T06:38:59.500Z,1010.96
2017-11-20T06:39:40.331Z,1010.97
2017-11-20T06:40:22.601Z,1010.96
2017-11-20T06:41:10.271Z,1010.96
2017-11-20T06:41:55.036Z,1010.98
2017-11-20T06:55:14.323Z,1011.1
2017-11-20T06:55:55.005Z,1011.09
2017-11-20T06:56:35.763Z,1011.13
2017-11-20T06:57:18.176Z,1011.1
2017-11-20T06:57:58.651Z,1011.12
2017-11-20T06:58:39.226Z,1011.13
2017-11-20T07:02:26.552Z,1011.14
2017-11-20T07:03:19.745Z,1011.2
2017-11-20T07:04:03.061Z,1011.23
2017-11-20T07:04:44.996Z,1011.19
2017-11-20T07:05:24.563Z,1011.2
2017-11-20T07:06:05.050Z,1011.18
2017-11-20T07:06:46.500Z,1011.19
2017-11-20T07:07:27.039Z,1011.19
2017-11-20T07:08:07.430Z,1011.19
2017-11-20T07:08:47.960Z,1011.21
2017-11-20T07:09:28.381Z,1011.23
2017-11-20T07:10:08.938Z,1011.24
2017-11-20T07:10:49.799Z,1011.24
2017-11-20T07:11:30.500Z,1011.24
2017-11-20T07:12:10.944Z,1011.27
2017-11-20T07:12:52.502Z,1011.27
2017-11-20T07:13:33.737Z,1011.27
2017-11-20T07:14:14.071Z,1011.29
2017-11-20T07:14:54.597Z,1011.28
2017-11-20T07:15:35.113Z,1011.25
2017-11-20T07:16:15.833Z,1011.29
2017-11-20T07:16:56.501Z,1011.27
2017-11-20T07:17:36.869Z,1011.24
2017-11-20T07:18:17.320Z,1011.2
2017-11-20T07:19:14.563Z,1011.24
2017-11-20T07:19:54.981Z,1011.21
2017-11-20T07:20:35.469Z,1011.2
2017-11-20T07:21:16.321Z,1011.21
2017-11-20T07:21:57.012Z,1011.19
2017-11-20T07:22:37.551Z,1011.21
2017-11-20T07:23:18.141Z,1011.23
2017-11-20T07:23:58.901Z,1011.24
2017-11-20T07:24:39.420Z,1011.25
2017-11-20T07:31:44.797Z,1011.28
2017-11-20T07:32:40.160Z,1011.33
2017-11-20T07:36:49.911Z,1011.3
2017-11-20T07:43:20.651Z,1011.38
2017-11-20T07:44:24.999Z,1011.39
2017-11-20T07:45:09.575Z,1011.41
2017-11-20T07:45:49.422Z,1011.44
2017-11-20T07:46:30.038Z,1011.41
2017-11-20T07:47:10.619Z,1011.41
2017-11-20T07:47:51.011Z,1011.4
2017-11-20T07:48:32.808Z,1011.43
2017-11-20T07:49:13.768Z,1011.43
2017-11-20T07:49:54.225Z,1011.43
2017-11-20T07:51:55.524Z,1011.42
2017-11-20T07:52:36.729Z,1011.43
2017-11-20T07:53:17.174Z,1011.43
2017-11-20T07:54:00.570Z,1011.39
2017-11-20T07:54:41.446Z,1011.37
2017-11-20T07:55:21.911Z,1011.41
2017-11-20T07:56:02.366Z,1011.39
2017-11-20T07:56:42.874Z,1011.4
2017-11-20T07:57:23.537Z,1011.44
2017-11-20T07:58:03.965Z,1011.38
2017-11-20T07:58:59.212Z,1011.34
2017-11-20T07:59:39.956Z,1011.32
2017-11-20T08:01:59.601Z,1011.36
2017-11-20T08:02:40.069Z,1011.38
2017-11-20T08:05:01.681Z,1011.36
2017-11-20T08:05:55.161Z,1011.31
2017-11-20T08:06:35.921Z,1011.31
2017-11-20T08:13:40.371Z,1011.15
2017-11-20T08:14:20.747Z,1011.1
2017-11-20T08:15:01.157Z,1011.15
2017-11-20T08:15:41.577Z,1011.07
2017-11-20T08:16:22.157Z,1011.07
2017-11-20T08:17:02.914Z,1011.04
2017-11-20T08:17:43.778Z,1011.09
2017-11-20T08:18:24.873Z,1011.09
2017-11-20T08:19:05.702Z,1011.08
2017-11-20T08:19:46.317Z,1011.07
2017-11-20T08:20:27.177Z,1011
2017-11-20T08:21:07.611Z,1011.07
2017-11-20T08:21:48.546Z,1011.1
2017-11-20T08:22:41.318Z,1010.74
2017-11-20T08:24:32.667Z,1010.99
2017-11-20T08:29:27.039Z,1010.63
2017-11-20T08:30:07.676Z,1010.9
2017-11-20T08:30:51.738Z,1010.85
2017-11-20T08:31:32.669Z,1010.79
2017-11-20T08:32:14.667Z,1010.82
2017-11-20T08:32:56.187Z,1010.81
2017-11-20T08:36:24.775Z,1010.7
2017-11-20T08:40:18.325Z,1010.66
2017-11-20T08:40:58.341Z,1010.67
2017-11-20T08:41:38.593Z,1010.72
2017-11-20T08:42:19.047Z,1010.65
2017-11-20T08:42:59.495Z,1010.68
2017-11-20T08:43:40.053Z,1010.69
2017-11-20T08:44:20.490Z,1010.66
2017-11-20T08:45:01.976Z,1010.67
2017-11-20T08:45:43.255Z,1010.69
2017-11-20T08:46:25.889Z,1010.64
2017-11-20T08:50:32.505Z,1010.63
2017-11-20T08:53:43.027Z,1010.7
2017-11-20T08:54:25.587Z,1010.67
2017-11-20T08:55:07.644Z,1010.65
2017-11-20T08:55:48.525Z,1010.77
2017-11-20T08:56:29.317Z,1010.69
2017-11-20T08:57:09.931Z,1010.6
2017-11-20T08:57:50.505Z,1010.64
2017-11-20T08:58:32.554Z,1010.61
2017-11-20T08:59:13.925Z,1010.58
2017-11-20T08:59:54.272Z,1010.51
2017-11-20T09:00:34.810Z,1010.48
2017-11-20T09:01:15.525Z,1010.54
2017-11-20T09:01:56.218Z,1010.57
2017-11-20T09:02:37.966Z,1010.54
2017-11-20T09:03:20.029Z,1010.52
2017-11-20T09:04:02.263Z,1010.47
2017-11-20T09:04:44.929Z,1010.4
2017-11-20T09:05:28.332Z,1010.45
2017-11-20T09:06:09.431Z,1010.39
2017-11-20T09:06:49.931Z,1010.38
2017-11-20T09:07:31.381Z,1010.37
2017-11-20T09:08:13.496Z,1010.34
2017-11-20T09:12:18.767Z,1010.3
2017-11-20T09:14:57.458Z,1010.3
2017-11-20T09:15:58.919Z,1010.33
2017-11-20T09:16:58.104Z,1010.37
2017-11-20T09:20:05.562Z,1010.3
2017-11-20T09:20:56.001Z,1010.27
2017-11-20T09:21:42.955Z,1010.27
2017-11-20T09:22:24.384Z,1010.21
2017-11-20T09:23:07.308Z,1010.18
2017-11-20T09:23:49.828Z,1010.15
2017-11-20T09:32:50.453Z,1010.17
2017-11-20T09:38:24.935Z,1010.13
2017-11-20T09:45:58.171Z,1009.89
2017-11-20T09:46:48.689Z,1009.79
2017-11-20T09:47:31.708Z,1009.75
2017-11-20T09:48:13.069Z,1009.71
2017-11-20T09:48:53.898Z,1009.68
2017-11-20T09:49:35.175Z,1009.6
2017-11-20T09:50:16.272Z,1009.59
2017-11-20T09:50:57.327Z,1009.58
2017-11-20T09:51:38.991Z,1009.58
2017-11-20T09:52:20.211Z,1009.51
2017-11-20T09:53:03.191Z,1009.59
2017-11-20T09:53:46.997Z,1009.59
2017-11-20T09:57:56.254Z,1009.61
2017-11-20T09:58:57.755Z,1009.61
2017-11-20T09:59:58.670Z,1009.6
2017-11-20T10:01:01.905Z,1009.58
2017-11-20T10:02:46.676Z,1009.48
2017-11-20T10:03:28.417Z,1009.52
2017-11-20T10:42:04.849Z,1008.84
2017-11-20T10:42:53.887Z,1008.84
2017-11-20T10:43:42.926Z,1008.78
2017-11-20T10:44:32.765Z,1008.82
2017-11-20T10:45:21.402Z,1008.83
2017-11-20T10:46:10.006Z,1008.84
2017-11-20T10:47:02.671Z,1008.8
2017-11-20T10:47:51.903Z,1008.82
2017-11-20T10:48:41.030Z,1008.79
2017-11-20T10:49:32.979Z,1008.8
2017-11-20T10:50:22.066Z,1008.78
2017-11-20T10:51:11.423Z,1008.78
2017-11-20T10:52:00.383Z,1008.79
2017-11-20T10:52:49.018Z,1008.72
2017-11-20T10:53:41.973Z,1008.79
2017-11-20T10:54:31.042Z,1008.73
2017-11-20T10:55:22.565Z,1008.78
2017-11-20T10:56:11.461Z,1008.71
2017-11-20T10:58:36.329Z,1008.75
2017-11-20T10:59:25.201Z,1008.71
2017-11-20T11:00:14.604Z,1008.72
2017-11-20T11:01:04.328Z,1008.66
2017-11-20T11:01:53.426Z,1008.66
2017-11-20T11:04:38.956Z,1008.64
2017-11-20T11:05:27.809Z,1008.66
2017-11-20T11:06:16.395Z,1008.64
2017-11-20T11:07:06.165Z,1008.66
2017-11-20T11:07:55.001Z,1008.61
2017-11-20T11:10:27.226Z,1008.66
2017-11-20T11:12:34.844Z,1008.62
2017-11-20T11:14:42.328Z,1008.64
2017-11-20T11:15:31.510Z,1008.65
2017-11-20T11:16:19.166Z,1008.64
2017-11-20T11:17:08.936Z,1008.68
2017-11-20T11:17:57.566Z,1008.66
2017-11-20T11:18:47.251Z,1008.66
2017-11-20T11:19:36.148Z,1008.66
2017-11-20T11:20:25.159Z,1008.63
2017-11-20T11:21:14.405Z,1008.61
2017-11-20T11:22:03.777Z,1008.65
2017-11-20T11:22:52.254Z,1008.59
2017-11-20T11:23:41.423Z,1008.59
2017-11-20T11:24:24.689Z,1008.61
2017-11-20T11:25:08.714Z,1008.55
2017-11-20T11:25:49.328Z,1008.6
2017-11-20T11:26:33.753Z,1008.56
2017-11-20T11:27:14.351Z,1008.59
2017-11-20T11:27:57.049Z,1008.6
2017-11-20T11:28:38.259Z,1008.54
2017-11-20T11:29:18.527Z,1008.59
2017-11-20T11:30:00.005Z,1008.54
2017-11-20T11:30:45.373Z,1008.56
2017-11-20T11:31:26.088Z,1008.53
2017-11-20T11:32:07.971Z,1008.52
2017-11-20T11:32:51.184Z,1008.5
2017-11-20T11:33:31.933Z,1008.52
2017-11-20T11:34:13.247Z,1008.53
2017-11-20T11:34:55.560Z,1008.53
2017-11-20T11:35:37.063Z,1008.55
2017-11-20T11:36:18.267Z,1008.53